sensor_id;sensor_type;location;lat;lon;timestamp;temperature;humidity
11132;DHT22;5620;53.570;9.718;2023-02-04T00:01:45;3.80;1.00
11132;DHT22;5620;53.570;9.718;2023-02-04T00:04:12;3.80;1.00
11132;DHT22;5620;53.570;9.718;2023-02-04T00:06:38;3.70;1.00
11132;DHT22;5620;53.570;9.718;2023-02-04T00:09:06;3.70;1.00
11132;DHT22;5620;53.570;9.718;2023-02-04T00:11:33;3.70;1.00
11132;DHT22;5620;53.570;9.718;2023-02-04T00:13:59;3.60;1.00
11132;DHT22;5620;53.570;9.718;2023-02-04T00:16:26;3.60;1.00
11132;DHT22;5620;53.570;9.718;2023-02-04T00:18:53;3.60;1.00
11132;DHT22;5620;53.570;9.718;2023-02-04T00:21:20;3.50;1.00
11132;DHT22;5620;53.570;9.718;2023-02-04T00:23:48;3.50;1.00
11132;DHT22;5620;53.570;9.718;2023-02-04T00:26:16;3.50;99.90
11132;DHT22;5620;53.570;9.718;2023-02-04T00:28:41;3.60;1.00
11132;DHT22;5620;53.570;9.718;2023-02-04T00:31:09;3.80;1.00
11132;DHT22;5620;53.570;9.718;2023-02-04T00:33:35;4.00;1.00
11132;DHT22;5620;53.570;9.718;2023-02-04T00:36:02;4.20;1.00
11132;DHT22;5620;53.570;9.718;2023-02-04T00:38:28;4.40;99.90
11132;DHT22;5620;53.570;9.718;2023-02-04T00:40:56;4.50;99.90
11132;DHT22;5620;53.570;9.718;2023-02-04T00:43:23;4.70;99.90
11132;DHT22;5620;53.570;9.718;2023-02-04T00:45:50;4.80;15.00
11132;DHT22;5620;53.570;9.718;2023-02-04T00:48:17;4.90;1.00
11132;DHT22;5620;53.570;9.718;2023-02-04T00:50:44;5.00;1.00
11132;DHT22;5620;53.570;9.718;2023-02-04T00:53:09;5.10;1.00
11132;DHT22;5620;53.570;9.718;2023-02-04T00:55:35;5.10;99.90
11132;DHT22;5620;53.570;9.718;2023-02-04T00:58:01;5.00;1.00
11132;DHT22;5620;53.570;9.718;2023-02-04T01:00:28;4.80;1.00
11132;DHT22;5620;53.570;9.718;2023-02-04T01:02:56;4.60;1.00
11132;DHT22;5620;53.570;9.718;2023-02-04T01:05:22;4.40;1.00
11132;DHT22;5620;53.570;9.718;2023-02-04T01:07:48;4.30;41.90
11132;DHT22;5620;53.570;9.718;2023-02-04T01:10:17;4.10;86.90
11132;DHT22;5620;53.570;9.718;2023-02-04T01:12:43;4.00;99.90
11132;DHT22;5620;53.570;9.718;2023-02-04T01:15:10;3.90;99.90
11132;DHT22;5620;53.570;9.718;2023-02-04T01:17:36;3.80;99.90
11132;DHT22;5620;53.570;9.718;2023-02-04T01:20:04;3.80;99.90
11132;DHT22;5620;53.570;9.718;2023-02-04T01:22:32;3.70;99.90
11132;DHT22;5620;53.570;9.718;2023-02-04T01:24:59;3.60;99.90
11132;DHT22;5620;53.570;9.718;2023-02-04T01:27:25;3.50;99.90
11132;DHT22;5620;53.570;9.718;2023-02-04T01:29:52;3.40;99.90
11132;DHT22;5620;53.570;9.718;2023-02-04T01:32:17;3.40;99.90
11132;DHT22;5620;53.570;9.718;2023-02-04T01:34:43;3.40;99.90
11132;DHT22;5620;53.570;9.718;2023-02-04T01:37:11;3.30;99.90
11132;DHT22;5620;53.570;9.718;2023-02-04T01:39:38;3.30;99.90
11132;DHT22;5620;53.570;9.718;2023-02-04T01:42:06;3.20;99.90
11132;DHT22;5620;53.570;9.718;2023-02-04T01:44:32;3.20;99.90
11132;DHT22;5620;53.570;9.718;2023-02-04T01:47:00;3.20;99.90
11132;DHT22;5620;53.570;9.718;2023-02-04T01:49:28;3.10;1.00
11132;DHT22;5620;53.570;9.718;2023-02-04T01:51:53;3.10;1.00
11132;DHT22;5620;53.570;9.718;2023-02-04T01:54:20;3.10;1.00
11132;DHT22;5620;53.570;9.718;2023-02-04T01:56:51;3.00;1.00
11132;DHT22;5620;53.570;9.718;2023-02-04T01:59:19;3.00;1.00
11132;DHT22;5620;53.570;9.718;2023-02-04T02:01:48;3.00;1.00
11132;DHT22;5620;53.570;9.718;2023-02-04T02:04:29;3.00;1.00
11132;DHT22;5620;53.570;9.718;2023-02-04T02:07:02;2.90;1.00
11132;DHT22;5620;53.570;9.718;2023-02-04T02:09:31;3.00;1.00
11132;DHT22;5620;53.570;9.718;2023-02-04T02:11:57;3.00;1.00
11132;DHT22;5620;53.570;9.718;2023-02-04T02:14:25;3.10;1.00
11132;DHT22;5620;53.570;9.718;2023-02-04T02:16:53;3.00;1.00
11132;DHT22;5620;53.570;9.718;2023-02-04T02:19:28;2.90;1.00
11132;DHT22;5620;53.570;9.718;2023-02-04T02:22:12;2.90;1.00
11132;DHT22;5620;53.570;9.718;2023-02-04T02:24:40;2.80;1.00
11132;DHT22;5620;53.570;9.718;2023-02-04T02:27:08;2.80;1.00
11132;DHT22;5620;53.570;9.718;2023-02-04T02:29:39;2.70;1.00
11132;DHT22;5620;53.570;9.718;2023-02-04T02:32:16;2.70;1.00
11132;DHT22;5620;53.570;9.718;2023-02-04T02:34:42;2.70;1.00
11132;DHT22;5620;53.570;9.718;2023-02-04T02:37:09;2.70;1.00
11132;DHT22;5620;53.570;9.718;2023-02-04T02:39:42;2.60;1.00
11132;DHT22;5620;53.570;9.718;2023-02-04T02:42:11;2.60;1.00
11132;DHT22;5620;53.570;9.718;2023-02-04T02:44:44;2.60;1.00
11132;DHT22;5620;53.570;9.718;2023-02-04T02:47:16;2.50;1.00
11132;DHT22;5620;53.570;9.718;2023-02-04T02:49:50;2.50;1.00
11132;DHT22;5620;53.570;9.718;2023-02-04T02:52:20;2.50;1.00
11132;DHT22;5620;53.570;9.718;2023-02-04T02:54:46;2.50;67.30
11132;DHT22;5620;53.570;9.718;2023-02-04T02:57:21;2.50;99.90
11132;DHT22;5620;53.570;9.718;2023-02-04T02:59:47;2.60;1.00
11132;DHT22;5620;53.570;9.718;2023-02-04T03:02:16;2.80;64.40
11132;DHT22;5620;53.570;9.718;2023-02-04T03:04:49;2.90;1.00
11132;DHT22;5620;53.570;9.718;2023-02-04T03:07:18;3.10;1.00
11132;DHT22;5620;53.570;9.718;2023-02-04T03:09:45;3.30;1.00
11132;DHT22;5620;53.570;9.718;2023-02-04T03:12:11;3.50;1.00
11132;DHT22;5620;53.570;9.718;2023-02-04T03:14:38;3.60;99.90
11132;DHT22;5620;53.570;9.718;2023-02-04T03:17:07;3.60;99.90
11132;DHT22;5620;53.570;9.718;2023-02-04T03:19:35;3.60;1.00
11132;DHT22;5620;53.570;9.718;2023-02-04T03:22:04;3.60;1.00
11132;DHT22;5620;53.570;9.718;2023-02-04T03:24:30;3.50;1.00
11132;DHT22;5620;53.570;9.718;2023-02-04T03:26:57;3.50;1.00
11132;DHT22;5620;53.570;9.718;2023-02-04T03:29:23;3.50;1.00
11132;DHT22;5620;53.570;9.718;2023-02-04T03:31:48;3.40;1.00
11132;DHT22;5620;53.570;9.718;2023-02-04T03:34:17;3.40;4.20
11132;DHT22;5620;53.570;9.718;2023-02-04T03:36:42;3.40;99.90
11132;DHT22;5620;53.570;9.718;2023-02-04T03:39:13;3.40;99.90
11132;DHT22;5620;53.570;9.718;2023-02-04T03:41:38;3.30;30.10
11132;DHT22;5620;53.570;9.718;2023-02-04T03:44:04;3.20;1.00
11132;DHT22;5620;53.570;9.718;2023-02-04T03:46:30;3.10;1.00
11132;DHT22;5620;53.570;9.718;2023-02-04T03:48:56;3.00;11.50
11132;DHT22;5620;53.570;9.718;2023-02-04T03:51:21;2.90;61.30
11132;DHT22;5620;53.570;9.718;2023-02-04T03:53:47;2.90;74.40
11132;DHT22;5620;53.570;9.718;2023-02-04T03:56:15;2.80;27.10
11132;DHT22;5620;53.570;9.718;2023-02-04T03:58:42;2.70;16.90
11132;DHT22;5620;53.570;9.718;2023-02-04T04:01:07;2.60;22.00
11132;DHT22;5620;53.570;9.718;2023-02-04T04:03:36;2.50;91.40
11132;DHT22;5620;53.570;9.718;2023-02-04T04:06:01;2.40;99.90
11132;DHT22;5620;53.570;9.718;2023-02-04T04:08:28;2.40;99.90
11132;DHT22;5620;53.570;9.718;2023-02-04T04:10:54;2.30;99.90
11132;DHT22;5620;53.570;9.718;2023-02-04T04:13:23;2.20;99.90
11132;DHT22;5620;53.570;9.718;2023-02-04T04:15:48;2.20;99.90
11132;DHT22;5620;53.570;9.718;2023-02-04T04:18:16;2.10;99.90
11132;DHT22;5620;53.570;9.718;2023-02-04T04:20:44;2.00;99.90
11132;DHT22;5620;53.570;9.718;2023-02-04T04:23:11;2.00;99.90
11132;DHT22;5620;53.570;9.718;2023-02-04T04:25:38;2.00;1.00
11132;DHT22;5620;53.570;9.718;2023-02-04T04:28:05;2.00;1.00
11132;DHT22;5620;53.570;9.718;2023-02-04T04:30:31;2.00;1.00
11132;DHT22;5620;53.570;9.718;2023-02-04T04:32:56;2.00;1.00
11132;DHT22;5620;53.570;9.718;2023-02-04T04:35:23;2.00;1.00
11132;DHT22;5620;53.570;9.718;2023-02-04T04:37:50;2.10;99.90
11132;DHT22;5620;53.570;9.718;2023-02-04T04:40:17;2.20;99.90
11132;DHT22;5620;53.570;9.718;2023-02-04T04:42:44;2.40;1.00
11132;DHT22;5620;53.570;9.718;2023-02-04T04:45:12;2.60;99.90
11132;DHT22;5620;53.570;9.718;2023-02-04T04:47:39;2.70;99.90
11132;DHT22;5620;53.570;9.718;2023-02-04T04:50:06;2.90;1.00
11132;DHT22;5620;53.570;9.718;2023-02-04T04:52:33;3.00;99.90
11132;DHT22;5620;53.570;9.718;2023-02-04T04:54:59;3.10;86.00
11132;DHT22;5620;53.570;9.718;2023-02-04T04:57:27;3.20;1.00
11132;DHT22;5620;53.570;9.718;2023-02-04T04:59:54;3.10;1.00
11132;DHT22;5620;53.570;9.718;2023-02-04T05:02:21;3.10;1.00
11132;DHT22;5620;53.570;9.718;2023-02-04T05:04:49;3.20;1.00
11132;DHT22;5620;53.570;9.718;2023-02-04T05:07:15;3.20;84.00
11132;DHT22;5620;53.570;9.718;2023-02-04T05:09:43;3.20;82.20
11132;DHT22;5620;53.570;9.718;2023-02-04T05:12:10;3.20;84.20
11132;DHT22;5620;53.570;9.718;2023-02-04T05:14:38;3.20;99.90
11132;DHT22;5620;53.570;9.718;2023-02-04T05:17:03;3.20;90.80
11132;DHT22;5620;53.570;9.718;2023-02-04T05:19:30;3.20;1.00
11132;DHT22;5620;53.570;9.718;2023-02-04T05:21:57;3.20;91.40
11132;DHT22;5620;53.570;9.718;2023-02-04T05:24:23;3.20;99.90
11132;DHT22;5620;53.570;9.718;2023-02-04T05:26:49;3.20;99.90
11132;DHT22;5620;53.570;9.718;2023-02-04T05:29:16;3.20;1.00
11132;DHT22;5620;53.570;9.718;2023-02-04T05:31:41;3.30;1.00
11132;DHT22;5620;53.570;9.718;2023-02-04T05:34:08;3.50;1.00
11132;DHT22;5620;53.570;9.718;2023-02-04T05:36:34;3.40;1.00
11132;DHT22;5620;53.570;9.718;2023-02-04T05:39:01;3.50;1.00
11132;DHT22;5620;53.570;9.718;2023-02-04T05:41:28;3.60;99.90
11132;DHT22;5620;53.570;9.718;2023-02-04T05:43:55;3.60;99.90
11132;DHT22;5620;53.570;9.718;2023-02-04T05:46:22;3.60;1.00
11132;DHT22;5620;53.570;9.718;2023-02-04T05:48:49;3.60;1.00
11132;DHT22;5620;53.570;9.718;2023-02-04T05:51:17;3.60;68.80
11132;DHT22;5620;53.570;9.718;2023-02-04T05:53:45;3.70;99.90
11132;DHT22;5620;53.570;9.718;2023-02-04T05:56:11;3.70;99.90
11132;DHT22;5620;53.570;9.718;2023-02-04T05:58:37;3.80;90.20
11132;DHT22;5620;53.570;9.718;2023-02-04T06:01:04;3.90;99.90
11132;DHT22;5620;53.570;9.718;2023-02-04T06:03:32;3.90;99.90
11132;DHT22;5620;53.570;9.718;2023-02-04T06:05:58;3.90;99.90
11132;DHT22;5620;53.570;9.718;2023-02-04T06:08:25;4.00;1.00
11132;DHT22;5620;53.570;9.718;2023-02-04T06:10:52;4.00;81.70
11132;DHT22;5620;53.570;9.718;2023-02-04T06:13:19;4.00;1.00
11132;DHT22;5620;53.570;9.718;2023-02-04T06:15:46;4.00;99.90
11132;DHT22;5620;53.570;9.718;2023-02-04T06:18:13;4.10;1.00
11132;DHT22;5620;53.570;9.718;2023-02-04T06:20:40;4.00;1.00
11132;DHT22;5620;53.570;9.718;2023-02-04T06:23:08;4.00;1.00
11132;DHT22;5620;53.570;9.718;2023-02-04T06:25:36;3.90;1.00
11132;DHT22;5620;53.570;9.718;2023-02-04T06:28:04;3.80;99.90
11132;DHT22;5620;53.570;9.718;2023-02-04T06:30:30;3.60;99.90
11132;DHT22;5620;53.570;9.718;2023-02-04T06:32:58;3.50;99.90
11132;DHT22;5620;53.570;9.718;2023-02-04T06:35:23;3.40;99.90
11132;DHT22;5620;53.570;9.718;2023-02-04T06:37:49;3.30;1.00
11132;DHT22;5620;53.570;9.718;2023-02-04T06:40:15;3.30;1.00
11132;DHT22;5620;53.570;9.718;2023-02-04T06:42:42;3.20;1.00
11132;DHT22;5620;53.570;9.718;2023-02-04T06:45:08;3.20;1.00
11132;DHT22;5620;53.570;9.718;2023-02-04T06:47:34;3.20;1.00
11132;DHT22;5620;53.570;9.718;2023-02-04T06:49:59;3.20;86.30
11132;DHT22;5620;53.570;9.718;2023-02-04T06:52:25;3.30;98.20
11132;DHT22;5620;53.570;9.718;2023-02-04T06:54:50;3.30;28.80
11132;DHT22;5620;53.570;9.718;2023-02-04T06:57:16;3.30;1.00
11132;DHT22;5620;53.570;9.718;2023-02-04T06:59:41;3.40;1.00
11132;DHT22;5620;53.570;9.718;2023-02-04T07:02:07;3.40;1.00
11132;DHT22;5620;53.570;9.718;2023-02-04T07:04:33;3.40;1.00
11132;DHT22;5620;53.570;9.718;2023-02-04T07:06:59;3.50;1.00
11132;DHT22;5620;53.570;9.718;2023-02-04T07:09:25;3.50;1.00
11132;DHT22;5620;53.570;9.718;2023-02-04T07:11:50;3.50;99.90
11132;DHT22;5620;53.570;9.718;2023-02-04T07:14:16;3.50;1.00
11132;DHT22;5620;53.570;9.718;2023-02-04T07:16:41;3.60;1.00
11132;DHT22;5620;53.570;9.718;2023-02-04T07:19:07;3.60;99.90
11132;DHT22;5620;53.570;9.718;2023-02-04T07:21:32;3.60;99.90
11132;DHT22;5620;53.570;9.718;2023-02-04T07:23:58;3.60;1.00
11132;DHT22;5620;53.570;9.718;2023-02-04T07:26:24;3.70;99.90
11132;DHT22;5620;53.570;9.718;2023-02-04T07:28:50;3.70;99.90
11132;DHT22;5620;53.570;9.718;2023-02-04T07:31:15;3.70;99.90
11132;DHT22;5620;53.570;9.718;2023-02-04T07:33:41;3.70;99.90
11132;DHT22;5620;53.570;9.718;2023-02-04T07:36:07;3.70;99.90
11132;DHT22;5620;53.570;9.718;2023-02-04T07:38:32;3.60;28.00
11132;DHT22;5620;53.570;9.718;2023-02-04T07:40:58;3.60;99.90
11132;DHT22;5620;53.570;9.718;2023-02-04T07:43:23;3.60;99.90
11132;DHT22;5620;53.570;9.718;2023-02-04T07:45:49;3.70;1.00
11132;DHT22;5620;53.570;9.718;2023-02-04T07:48:15;3.90;1.00
11132;DHT22;5620;53.570;9.718;2023-02-04T07:50:40;3.90;99.90
11132;DHT22;5620;53.570;9.718;2023-02-04T07:53:06;4.00;99.90
11132;DHT22;5620;53.570;9.718;2023-02-04T07:55:31;4.20;99.90
11132;DHT22;5620;53.570;9.718;2023-02-04T07:57:57;4.30;94.60
11132;DHT22;5620;53.570;9.718;2023-02-04T08:00:22;4.40;99.90
11132;DHT22;5620;53.570;9.718;2023-02-04T08:02:49;4.50;1.00
11132;DHT22;5620;53.570;9.718;2023-02-04T08:05:15;4.60;1.00
11132;DHT22;5620;53.570;9.718;2023-02-04T08:07:40;4.70;1.00
11132;DHT22;5620;53.570;9.718;2023-02-04T08:10:07;4.80;1.00
11132;DHT22;5620;53.570;9.718;2023-02-04T08:12:33;4.80;99.90
11132;DHT22;5620;53.570;9.718;2023-02-04T08:14:58;4.90;99.90
11132;DHT22;5620;53.570;9.718;2023-02-04T08:17:24;4.90;18.90
11132;DHT22;5620;53.570;9.718;2023-02-04T08:19:49;4.90;1.00
11132;DHT22;5620;53.570;9.718;2023-02-04T08:22:15;4.80;1.00
11132;DHT22;5620;53.570;9.718;2023-02-04T08:24:40;4.70;99.90
11132;DHT22;5620;53.570;9.718;2023-02-04T08:27:06;4.70;99.90
11132;DHT22;5620;53.570;9.718;2023-02-04T08:29:32;4.60;99.90
11132;DHT22;5620;53.570;9.718;2023-02-04T08:31:57;4.70;99.90
11132;DHT22;5620;53.570;9.718;2023-02-04T08:34:23;4.70;99.90
11132;DHT22;5620;53.570;9.718;2023-02-04T08:36:48;4.60;99.90
11132;DHT22;5620;53.570;9.718;2023-02-04T08:39:14;4.60;99.90
11132;DHT22;5620;53.570;9.718;2023-02-04T08:41:40;4.60;99.90
11132;DHT22;5620;53.570;9.718;2023-02-04T08:44:05;4.70;1.00
11132;DHT22;5620;53.570;9.718;2023-02-04T08:46:31;4.90;1.00
11132;DHT22;5620;53.570;9.718;2023-02-04T08:48:57;5.20;1.00
11132;DHT22;5620;53.570;9.718;2023-02-04T08:51:22;5.50;1.00
11132;DHT22;5620;53.570;9.718;2023-02-04T08:53:48;5.70;96.60
11132;DHT22;5620;53.570;9.718;2023-02-04T08:56:13;5.70;1.00
11132;DHT22;5620;53.570;9.718;2023-02-04T08:58:39;5.80;1.00
11132;DHT22;5620;53.570;9.718;2023-02-04T09:01:04;5.70;99.90
11132;DHT22;5620;53.570;9.718;2023-02-04T09:03:30;5.50;99.90
11132;DHT22;5620;53.570;9.718;2023-02-04T09:05:56;5.50;99.90
11132;DHT22;5620;53.570;9.718;2023-02-04T09:08:21;5.50;99.90
11132;DHT22;5620;53.570;9.718;2023-02-04T09:10:47;5.60;99.90
11132;DHT22;5620;53.570;9.718;2023-02-04T09:13:12;5.60;99.90
11132;DHT22;5620;53.570;9.718;2023-02-04T09:15:38;5.60;99.90
11132;DHT22;5620;53.570;9.718;2023-02-04T09:18:03;5.60;50.70
11132;DHT22;5620;53.570;9.718;2023-02-04T09:20:29;5.60;61.90
11132;DHT22;5620;53.570;9.718;2023-02-04T09:22:55;5.60;95.00
11132;DHT22;5620;53.570;9.718;2023-02-04T09:25:20;5.60;72.20
11132;DHT22;5620;53.570;9.718;2023-02-04T09:27:46;5.70;19.40
11132;DHT22;5620;53.570;9.718;2023-02-04T09:30:11;5.80;1.00
11132;DHT22;5620;53.570;9.718;2023-02-04T09:32:37;5.90;1.00
11132;DHT22;5620;53.570;9.718;2023-02-04T09:35:03;6.00;1.00
11132;DHT22;5620;53.570;9.718;2023-02-04T09:37:28;6.10;1.00
11132;DHT22;5620;53.570;9.718;2023-02-04T09:39:54;6.20;1.00
11132;DHT22;5620;53.570;9.718;2023-02-04T09:42:22;6.30;99.90
11132;DHT22;5620;53.570;9.718;2023-02-04T09:44:48;6.40;99.90
11132;DHT22;5620;53.570;9.718;2023-02-04T09:47:14;6.50;99.90
11132;DHT22;5620;53.570;9.718;2023-02-04T09:49:42;6.50;90.50
11132;DHT22;5620;53.570;9.718;2023-02-04T09:52:11;6.60;49.20
11132;DHT22;5620;53.570;9.718;2023-02-04T09:54:38;6.70;1.00
11132;DHT22;5620;53.570;9.718;2023-02-04T09:57:14;6.90;1.00
11132;DHT22;5620;53.570;9.718;2023-02-04T09:59:42;7.10;1.00
11132;DHT22;5620;53.570;9.718;2023-02-04T10:02:23;7.40;1.00
11132;DHT22;5620;53.570;9.718;2023-02-04T10:04:51;7.50;99.90
11132;DHT22;5620;53.570;9.718;2023-02-04T10:07:18;7.70;99.90
11132;DHT22;5620;53.570;9.718;2023-02-04T10:09:46;7.90;99.90
11132;DHT22;5620;53.570;9.718;2023-02-04T10:12:13;8.30;99.90
11132;DHT22;5620;53.570;9.718;2023-02-04T10:14:38;8.60;99.90
11132;DHT22;5620;53.570;9.718;2023-02-04T10:17:04;8.90;22.40
11132;DHT22;5620;53.570;9.718;2023-02-04T10:19:30;9.10;1.00
11132;DHT22;5620;53.570;9.718;2023-02-04T10:21:56;9.40;1.00
11132;DHT22;5620;53.570;9.718;2023-02-04T10:24:24;9.60;1.00
11132;DHT22;5620;53.570;9.718;2023-02-04T10:26:50;9.80;1.00
11132;DHT22;5620;53.570;9.718;2023-02-04T10:29:20;10.10;1.00
11132;DHT22;5620;53.570;9.718;2023-02-04T10:31:48;10.10;99.90
11132;DHT22;5620;53.570;9.718;2023-02-04T10:34:16;10.10;99.90
11132;DHT22;5620;53.570;9.718;2023-02-04T10:36:44;10.10;99.90
11132;DHT22;5620;53.570;9.718;2023-02-04T10:39:11;10.20;99.90
11132;DHT22;5620;53.570;9.718;2023-02-04T10:41:38;10.40;99.90
11132;DHT22;5620;53.570;9.718;2023-02-04T10:44:13;10.60;99.90
11132;DHT22;5620;53.570;9.718;2023-02-04T10:46:39;10.80;99.90
11132;DHT22;5620;53.570;9.718;2023-02-04T10:49:18;10.90;99.90
11132;DHT22;5620;53.570;9.718;2023-02-04T10:51:45;11.00;84.00
11132;DHT22;5620;53.570;9.718;2023-02-04T10:54:12;11.10;61.60
11132;DHT22;5620;53.570;9.718;2023-02-04T10:56:38;11.30;30.00
11132;DHT22;5620;53.570;9.718;2023-02-04T10:59:04;11.50;1.00
11132;DHT22;5620;53.570;9.718;2023-02-04T11:01:30;11.80;1.00
11132;DHT22;5620;53.570;9.718;2023-02-04T11:03:56;12.00;1.00
11132;DHT22;5620;53.570;9.718;2023-02-04T11:06:23;11.90;1.00
11132;DHT22;5620;53.570;9.718;2023-02-04T11:08:49;11.80;1.00
11132;DHT22;5620;53.570;9.718;2023-02-04T11:11:33;11.90;1.00
11132;DHT22;5620;53.570;9.718;2023-02-04T11:14:00;11.90;1.00
11132;DHT22;5620;53.570;9.718;2023-02-04T11:16:28;11.90;1.00
11132;DHT22;5620;53.570;9.718;2023-02-04T11:19:00;11.80;1.00
11132;DHT22;5620;53.570;9.718;2023-02-04T11:26:46;11.70;1.00
11132;DHT22;5620;53.570;9.718;2023-02-04T11:31:44;11.90;1.00
11132;DHT22;5620;53.570;9.718;2023-02-04T11:34:47;11.90;1.00
11132;DHT22;5620;53.570;9.718;2023-02-04T11:37:34;11.90;99.90
11132;DHT22;5620;53.570;9.718;2023-02-04T11:40:00;11.90;99.90
11132;DHT22;5620;53.570;9.718;2023-02-04T11:43:12;11.90;99.90
11132;DHT22;5620;53.570;9.718;2023-02-04T11:45:42;11.90;99.90
11132;DHT22;5620;53.570;9.718;2023-02-04T11:48:18;11.90;99.90
11132;DHT22;5620;53.570;9.718;2023-02-04T11:51:00;12.00;99.90
11132;DHT22;5620;53.570;9.718;2023-02-04T11:53:33;12.20;99.90
11132;DHT22;5620;53.570;9.718;2023-02-04T11:56:01;12.40;99.90
11132;DHT22;5620;53.570;9.718;2023-02-04T11:58:30;12.40;99.90
11132;DHT22;5620;53.570;9.718;2023-02-04T12:00:57;12.30;99.90
11132;DHT22;5620;53.570;9.718;2023-02-04T12:03:32;12.10;99.90
11132;DHT22;5620;53.570;9.718;2023-02-04T12:05:59;11.80;99.90
11132;DHT22;5620;53.570;9.718;2023-02-04T12:08:45;11.90;99.90
11132;DHT22;5620;53.570;9.718;2023-02-04T12:11:25;12.50;99.90
11132;DHT22;5620;53.570;9.718;2023-02-04T12:13:57;13.40;99.90
11132;DHT22;5620;53.570;9.718;2023-02-04T12:16:26;14.30;99.90
11132;DHT22;5620;53.570;9.718;2023-02-04T12:18:53;15.20;99.90
11132;DHT22;5620;53.570;9.718;2023-02-04T12:21:21;16.10;99.90
11132;DHT22;5620;53.570;9.718;2023-02-04T12:23:47;16.90;99.90
11132;DHT22;5620;53.570;9.718;2023-02-04T12:26:14;17.30;99.90
11132;DHT22;5620;53.570;9.718;2023-02-04T12:28:42;17.10;93.10
11132;DHT22;5620;53.570;9.718;2023-02-04T12:31:10;16.60;76.60
11132;DHT22;5620;53.570;9.718;2023-02-04T12:33:36;16.00;66.70
11132;DHT22;5620;53.570;9.718;2023-02-04T12:36:05;15.30;69.40
11132;DHT22;5620;53.570;9.718;2023-02-04T12:38:32;14.70;51.30
11132;DHT22;5620;53.570;9.718;2023-02-04T12:40:59;14.30;46.20
11132;DHT22;5620;53.570;9.718;2023-02-04T12:43:27;14.20;46.30
11132;DHT22;5620;53.570;9.718;2023-02-04T12:45:54;14.30;46.90
11132;DHT22;5620;53.570;9.718;2023-02-04T12:48:22;14.50;43.40
11132;DHT22;5620;53.570;9.718;2023-02-04T12:50:47;14.20;36.10
11132;DHT22;5620;53.570;9.718;2023-02-04T12:53:15;14.20;36.40
11132;DHT22;5620;53.570;9.718;2023-02-04T12:55:42;14.50;35.00
11132;DHT22;5620;53.570;9.718;2023-02-04T12:58:10;15.00;30.70
11132;DHT22;5620;53.570;9.718;2023-02-04T13:00:38;15.20;26.00
11132;DHT22;5620;53.570;9.718;2023-02-04T13:03:04;15.10;20.60
11132;DHT22;5620;53.570;9.718;2023-02-04T13:05:31;15.10;16.90
11132;DHT22;5620;53.570;9.718;2023-02-04T13:07:59;15.20;12.30
11132;DHT22;5620;53.570;9.718;2023-02-04T13:10:27;15.00;7.90
11132;DHT22;5620;53.570;9.718;2023-02-04T13:12:54;14.60;5.20
11132;DHT22;5620;53.570;9.718;2023-02-04T13:15:22;14.90;5.50
11132;DHT22;5620;53.570;9.718;2023-02-04T13:17:50;15.20;2.90
11132;DHT22;5620;53.570;9.718;2023-02-04T13:20:19;15.70;1.00
11132;DHT22;5620;53.570;9.718;2023-02-04T13:22:46;16.20;1.00
11132;DHT22;5620;53.570;9.718;2023-02-04T13:25:13;16.80;1.00
11132;DHT22;5620;53.570;9.718;2023-02-04T13:27:40;17.60;1.00
11132;DHT22;5620;53.570;9.718;2023-02-04T13:30:08;18.40;1.00
11132;DHT22;5620;53.570;9.718;2023-02-04T13:32:36;18.80;1.00
11132;DHT22;5620;53.570;9.718;2023-02-04T13:35:03;18.50;1.00
11132;DHT22;5620;53.570;9.718;2023-02-04T13:37:29;17.60;1.00
11132;DHT22;5620;53.570;9.718;2023-02-04T13:39:57;16.80;1.00
11132;DHT22;5620;53.570;9.718;2023-02-04T13:42:24;16.40;1.00
11132;DHT22;5620;53.570;9.718;2023-02-04T13:44:50;16.30;1.00
11132;DHT22;5620;53.570;9.718;2023-02-04T13:47:17;16.40;1.00
11132;DHT22;5620;53.570;9.718;2023-02-04T13:49:46;16.30;1.00
11132;DHT22;5620;53.570;9.718;2023-02-04T13:52:14;16.00;1.00
11132;DHT22;5620;53.570;9.718;2023-02-04T13:54:41;15.60;1.00
11132;DHT22;5620;53.570;9.718;2023-02-04T13:57:07;15.30;1.00
11132;DHT22;5620;53.570;9.718;2023-02-04T13:59:35;15.00;1.00
11132;DHT22;5620;53.570;9.718;2023-02-04T14:02:02;14.90;1.00
11132;DHT22;5620;53.570;9.718;2023-02-04T14:04:27;14.90;1.00
11132;DHT22;5620;53.570;9.718;2023-02-04T14:06:54;15.10;1.00
11132;DHT22;5620;53.570;9.718;2023-02-04T14:09:23;15.10;1.00
11132;DHT22;5620;53.570;9.718;2023-02-04T14:11:49;15.10;1.00
11132;DHT22;5620;53.570;9.718;2023-02-04T14:14:18;15.00;1.00
11132;DHT22;5620;53.570;9.718;2023-02-04T14:16:44;14.90;1.00
11132;DHT22;5620;53.570;9.718;2023-02-04T14:19:11;14.80;1.00
11132;DHT22;5620;53.570;9.718;2023-02-04T14:21:38;14.70;1.00
11132;DHT22;5620;53.570;9.718;2023-02-04T14:24:05;14.50;1.00
11132;DHT22;5620;53.570;9.718;2023-02-04T14:26:32;14.40;1.00
11132;DHT22;5620;53.570;9.718;2023-02-04T14:28:59;14.30;1.00
11132;DHT22;5620;53.570;9.718;2023-02-04T14:31:26;14.10;1.00
11132;DHT22;5620;53.570;9.718;2023-02-04T14:33:52;13.90;1.00
11132;DHT22;5620;53.570;9.718;2023-02-04T14:36:20;13.60;1.00
11132;DHT22;5620;53.570;9.718;2023-02-04T14:38:47;13.20;1.00
11132;DHT22;5620;53.570;9.718;2023-02-04T14:41:17;12.80;1.00
11132;DHT22;5620;53.570;9.718;2023-02-04T14:43:45;12.30;1.00
11132;DHT22;5620;53.570;9.718;2023-02-04T14:46:11;11.80;1.00
11132;DHT22;5620;53.570;9.718;2023-02-04T14:48:38;11.40;1.00
11132;DHT22;5620;53.570;9.718;2023-02-04T14:51:05;11.00;1.00
11132;DHT22;5620;53.570;9.718;2023-02-04T14:53:30;10.60;1.00
11132;DHT22;5620;53.570;9.718;2023-02-04T14:55:57;10.30;1.00
11132;DHT22;5620;53.570;9.718;2023-02-04T14:58:25;10.00;1.00
11132;DHT22;5620;53.570;9.718;2023-02-04T15:00:55;9.70;1.00
11132;DHT22;5620;53.570;9.718;2023-02-04T15:03:20;9.50;1.00
11132;DHT22;5620;53.570;9.718;2023-02-04T15:05:49;9.40;1.00
11132;DHT22;5620;53.570;9.718;2023-02-04T15:08:14;9.30;1.00
11132;DHT22;5620;53.570;9.718;2023-02-04T15:10:44;9.20;1.00
11132;DHT22;5620;53.570;9.718;2023-02-04T15:13:10;9.10;1.00
11132;DHT22;5620;53.570;9.718;2023-02-04T15:15:37;8.90;1.00
11132;DHT22;5620;53.570;9.718;2023-02-04T15:18:05;8.70;1.00
11132;DHT22;5620;53.570;9.718;2023-02-04T15:20:31;8.60;1.00
11132;DHT22;5620;53.570;9.718;2023-02-04T15:22:58;8.50;1.00
11132;DHT22;5620;53.570;9.718;2023-02-04T15:25:25;8.30;1.00
11132;DHT22;5620;53.570;9.718;2023-02-04T15:27:53;8.20;1.00
11132;DHT22;5620;53.570;9.718;2023-02-04T15:30:22;8.00;1.00
11132;DHT22;5620;53.570;9.718;2023-02-04T15:32:47;7.90;1.00
11132;DHT22;5620;53.570;9.718;2023-02-04T15:35:16;7.80;1.00
11132;DHT22;5620;53.570;9.718;2023-02-04T15:37:41;7.70;1.00
11132;DHT22;5620;53.570;9.718;2023-02-04T15:40:09;7.60;1.00
11132;DHT22;5620;53.570;9.718;2023-02-04T15:42:35;7.60;1.00
11132;DHT22;5620;53.570;9.718;2023-02-04T15:45:00;7.50;1.00
11132;DHT22;5620;53.570;9.718;2023-02-04T15:47:30;7.50;1.50
11132;DHT22;5620;53.570;9.718;2023-02-04T15:49:58;7.40;4.30
11132;DHT22;5620;53.570;9.718;2023-02-04T15:52:24;7.40;8.10
11132;DHT22;5620;53.570;9.718;2023-02-04T15:54:52;7.30;11.90
11132;DHT22;5620;53.570;9.718;2023-02-04T15:57:18;7.20;15.30
11132;DHT22;5620;53.570;9.718;2023-02-04T15:59:44;7.10;18.80
11132;DHT22;5620;53.570;9.718;2023-02-04T16:02:14;7.00;22.70
11132;DHT22;5620;53.570;9.718;2023-02-04T16:04:40;6.90;27.40
11132;DHT22;5620;53.570;9.718;2023-02-04T16:07:07;6.80;32.50
11132;DHT22;5620;53.570;9.718;2023-02-04T16:09:34;6.70;38.40
11132;DHT22;5620;53.570;9.718;2023-02-04T16:12:03;6.60;44.10
11132;DHT22;5620;53.570;9.718;2023-02-04T16:14:29;6.50;50.50